createdAt,value
2018-11-28T00:02:28.878Z,98521.78
2018-11-28T00:05:33.728Z,98523.11
2018-11-28T00:08:43.980Z,98525.41
2018-11-28T00:11:48.605Z,98530.15
2018-11-28T00:14:53.158Z,98549.70
2018-11-28T00:17:57.735Z,98546.94
2018-11-28T00:21:02.305Z,98547.23
2018-11-28T00:24:07.017Z,98555.39
2018-11-28T00:27:11.605Z,98560.60
2018-11-28T00:30:17.380Z,98556.55
2018-11-28T00:33:21.990Z,98571.66
2018-11-28T00:36:26.514Z,98579.78
2018-11-28T00:39:31.109Z,98580.28
2018-11-28T00:42:35.676Z,98574.27
2018-11-28T00:45:40.301Z,98577.86
2018-11-28T00:48:44.852Z,98569.69
2018-11-28T00:51:49.419Z,98582.66
2018-11-28T00:54:54.026Z,98577.16
2018-11-28T00:57:58.548Z,98567.72
2018-11-28T01:01:03.138Z,98577.83
2018-11-28T01:04:07.807Z,98571.30
2018-11-28T01:07:12.367Z,98569.49
2018-11-28T01:10:18.369Z,98561.21
2018-11-28T01:13:22.909Z,98567.68
2018-11-28T01:16:27.475Z,98565.60
2018-11-28T01:19:32.022Z,98572.93
2018-11-28T01:22:36.626Z,98587.23
2018-11-28T01:25:41.241Z,98586.58
2018-11-28T01:28:46.496Z,98582.86
2018-11-28T01:31:50.446Z,98585.75
2018-11-28T01:34:54.970Z,98588.48
2018-11-28T01:37:59.675Z,98582.98
2018-11-28T01:41:04.226Z,98574.20
2018-11-28T01:44:08.753Z,98582.16
2018-11-28T01:47:13.270Z,98584.94
2018-11-28T01:50:21.834Z,98586.48
2018-11-28T01:53:26.428Z,98575.66
2018-11-28T01:56:31.161Z,98571.07
2018-11-28T01:59:42.446Z,98577.68
2018-11-28T02:02:47.758Z,98572.59
2018-11-28T02:05:52.328Z,98583.70
2018-11-28T02:08:56.897Z,98589.64
2018-11-28T02:12:01.521Z,98585.83
2018-11-28T02:15:07.334Z,98595.33
2018-11-28T02:18:11.913Z,98588.37
2018-11-28T02:21:16.561Z,98588.84
2018-11-28T02:24:21.336Z,98608.31
2018-11-28T02:27:25.848Z,98616.23
2018-11-28T02:30:30.462Z,98651.59
2018-11-28T02:33:34.989Z,98658.46
2018-11-28T02:36:39.513Z,98679.02
2018-11-28T02:39:44.122Z,98699.58
2018-11-28T02:42:49.729Z,98720.45
2018-11-28T02:46:05.194Z,98715.09
2018-11-28T02:49:09.843Z,98698.06
2018-11-28T02:52:14.374Z,98688.53
2018-11-28T02:55:19.291Z,98684.33
2018-11-28T02:58:23.870Z,98692.27
2018-11-28T03:01:28.398Z,98682.22
2018-11-28T03:04:33.522Z,98686.98
2018-11-28T03:07:38.182Z,98680.27
2018-11-28T03:10:42.724Z,98671.02
2018-11-28T03:13:47.263Z,98675.03
2018-11-28T03:16:51.838Z,98664.77
2018-11-28T03:19:56.449Z,98669.05
2018-11-28T03:23:00.970Z,98668.05
2018-11-28T03:26:05.937Z,98674.09
2018-11-28T03:29:10.502Z,98673.61
2018-11-28T03:32:15.087Z,98693.04
2018-11-28T03:35:19.665Z,98689.70
2018-11-28T03:38:24.246Z,98691.83
2018-11-28T03:41:28.777Z,98704.04
2018-11-28T03:44:33.390Z,98711.48
2018-11-28T03:47:38.040Z,98717.14
2018-11-28T03:50:42.622Z,98726.95
2018-11-28T03:53:47.146Z,98726.52
2018-11-28T03:56:51.729Z,98742.05
2018-11-28T03:59:56.257Z,98736.67
2018-11-28T04:03:01.014Z,98756.75
2018-11-28T04:06:06.717Z,98773.04
2018-11-28T04:09:11.317Z,98782.11
2018-11-28T04:12:15.915Z,98792.80
2018-11-28T04:15:21.969Z,98813.46
2018-11-28T04:18:26.966Z,98795.73
2018-11-28T04:21:31.493Z,98812.39
2018-11-28T04:24:35.999Z,98814.64
2018-11-28T04:27:40.629Z,98815.05
2018-11-28T04:30:45.159Z,98823.38
2018-11-28T04:33:49.807Z,98824.98
2018-11-28T04:36:54.344Z,98840.39
2018-11-28T04:39:58.867Z,98842.92
2018-11-28T04:43:03.421Z,98845.48
2018-11-28T04:46:08.006Z,98850.90
2018-11-28T04:49:12.515Z,98856.00
2018-11-28T04:52:17.097Z,98856.79
2018-11-28T04:55:21.870Z,98864.03
2018-11-28T04:58:26.470Z,98856.19
2018-11-28T05:01:30.989Z,98865.24
2018-11-28T05:04:35.630Z,98862.80
2018-11-28T05:07:40.817Z,98853.98
2018-11-28T05:10:45.346Z,98854.27
2018-11-28T05:13:49.914Z,98858.44
2018-11-28T05:16:54.461Z,98866.83
2018-11-28T05:19:58.994Z,98866.55
2018-11-28T05:23:04.295Z,98890.52
2018-11-28T05:26:08.816Z,98889.09
2018-11-28T05:29:13.449Z,98905.38
2018-11-28T05:32:17.996Z,98903.41
2018-11-28T05:35:23.982Z,98912.37
2018-11-28T05:38:28.545Z,98928.13
2018-11-28T05:41:33.110Z,98924.70
2018-11-28T05:44:37.735Z,98925.72
2018-11-28T05:47:42.357Z,98933.86
2018-11-28T05:50:46.913Z,98941.72
2018-11-28T05:53:51.477Z,98943.76
2018-11-28T05:56:56.050Z,98940.56
2018-11-28T06:00:00.605Z,98946.77
2018-11-28T06:03:06.146Z,98961.25
2018-11-28T06:06:10.705Z,98958.56
2018-11-28T06:09:15.248Z,98960.34
2018-11-28T06:12:19.794Z,98967.86
2018-11-28T06:15:24.315Z,98971.55
2018-11-28T06:18:28.901Z,98964.82
2018-11-28T06:21:33.470Z,98986.36
2018-11-28T06:24:37.991Z,98998.27
2018-11-28T06:27:42.537Z,99005.85
2018-11-28T06:30:47.109Z,99007.36
2018-11-28T06:33:51.642Z,99019.10
2018-11-28T06:36:56.254Z,99022.81
2018-11-28T06:40:00.803Z,99029.06
2018-11-28T06:43:05.520Z,99042.58
2018-11-28T06:46:10.086Z,99050.69
2018-11-28T06:49:14.644Z,99057.63
2018-11-28T06:52:19.196Z,99055.64
2018-11-28T06:55:23.837Z,99065.97
2018-11-28T06:58:28.454Z,99074.31
2018-11-28T07:01:33.018Z,99075.44
2018-11-28T07:04:37.550Z,99083.19
2018-11-28T07:07:42.159Z,99108.50
2018-11-28T07:10:48.798Z,99110.19
2018-11-28T07:13:52.680Z,99116.78
2018-11-28T07:16:57.277Z,99122.79
2018-11-28T07:20:01.789Z,99133.27
2018-11-28T07:23:06.988Z,99136.64
2018-11-28T07:26:11.543Z,99142.69
2018-11-28T07:29:16.074Z,99153.27
2018-11-28T07:32:20.594Z,99153.33
2018-11-28T07:35:25.223Z,99168.13
2018-11-28T07:38:29.761Z,99174.41
2018-11-28T07:41:34.309Z,99179.59
2018-11-28T07:44:38.864Z,99179.73
2018-11-28T07:47:43.460Z,99180.89
2018-11-28T07:50:48.139Z,99192.41
2018-11-28T07:53:52.857Z,99194.44
2018-11-28T07:56:57.384Z,99194.55
2018-11-28T08:00:02.015Z,99201.41
2018-11-28T08:03:08.350Z,99202.23
2018-11-28T08:06:12.976Z,99214.14
2018-11-28T08:09:17.489Z,99222.43
2018-11-28T08:12:22.108Z,99229.52
2018-11-28T08:15:27.002Z,99231.70
2018-11-28T08:18:31.424Z,99230.20
2018-11-28T08:21:36.027Z,99238.75
2018-11-28T08:24:40.722Z,99246.67
2018-11-28T08:27:46.306Z,99262.14
2018-11-28T08:30:50.863Z,99272.65
2018-11-28T08:33:55.522Z,99273.34
2018-11-28T08:37:00.995Z,99291.20
2018-11-28T08:40:07.809Z,99290.50
2018-11-28T08:43:12.376Z,99293.58
2018-11-28T08:46:17.004Z,99292.78
2018-11-28T08:49:21.570Z,99291.64
2018-11-28T08:52:26.167Z,99292.76
2018-11-28T08:55:30.845Z,99288.65
2018-11-28T08:58:35.411Z,99304.15
2018-11-28T09:01:40.031Z,99312.77
2018-11-28T09:04:44.645Z,99311.32
2018-11-28T09:07:49.350Z,99315.70
2018-11-28T09:10:53.925Z,99328.43
2018-11-28T09:14:04.243Z,99326.88
2018-11-28T09:17:05.088Z,99334.80
2018-11-28T09:20:12.880Z,99338.86
2018-11-28T09:23:17.781Z,99331.61
2018-11-28T09:26:22.309Z,99338.91
2018-11-28T09:29:26.896Z,99338.56
2018-11-28T09:32:31.501Z,99348.52
2018-11-28T09:35:36.072Z,99357.74
2018-11-28T09:38:40.666Z,99358.42
2018-11-28T09:41:45.230Z,99355.28
2018-11-28T09:44:49.852Z,99353.33
2018-11-28T09:47:54.399Z,99354.80
2018-11-28T09:50:59.074Z,99356.04
2018-11-28T09:54:03.612Z,99365.95
2018-11-28T09:57:08.193Z,99360.80
2018-11-28T10:00:17.412Z,99364.76
2018-11-28T10:03:22.103Z,99357.66
2018-11-28T10:06:26.621Z,99360.26
2018-11-28T10:09:31.234Z,99360.20
2018-11-28T10:12:35.834Z,99365.15
2018-11-28T10:15:40.369Z,99369.41
2018-11-28T10:18:44.949Z,99372.84
2018-11-28T10:21:49.458Z,99363.94
2018-11-28T10:24:54.093Z,99367.44
2018-11-28T10:28:03.081Z,99369.48
2018-11-28T10:31:07.644Z,99378.20
2018-11-28T10:34:12.169Z,99380.08
2018-11-28T10:37:16.755Z,99399.73
2018-11-28T10:40:22.384Z,99396.97
2018-11-28T10:43:27.003Z,99393.78
2018-11-28T10:46:31.564Z,99395.94
2018-11-28T10:49:36.101Z,99387.94
2018-11-28T10:52:40.770Z,99392.26
2018-11-28T10:55:45.317Z,99393.05
2018-11-28T10:58:49.943Z,99388.66
2018-11-28T11:01:59.501Z,99399.17
2018-11-28T11:05:09.509Z,99401.30
2018-11-28T11:08:19.280Z,99408.77
2018-11-28T11:11:25.367Z,99414.16
2018-11-28T11:14:35.348Z,99421.22
2018-11-28T11:17:39.949Z,99412.91
2018-11-28T11:20:44.578Z,99419.45
2018-11-28T11:23:49.113Z,99414.65
2018-11-28T11:26:53.662Z,99425.27
2018-11-28T11:29:58.306Z,99420.58
2018-11-28T11:33:02.882Z,99428.95
2018-11-28T11:36:07.761Z,99430.81
2018-11-28T11:39:12.328Z,99437.22
2018-11-28T11:42:16.837Z,99434.67
2018-11-28T11:45:21.442Z,99444.14
2018-11-28T11:48:26.026Z,99445.69
2018-11-28T11:51:30.623Z,99453.67
2018-11-28T11:54:35.175Z,99460.47
2018-11-28T11:57:39.817Z,99468.42
2018-11-28T12:00:45.893Z,99468.31
2018-11-28T12:03:50.461Z,99467.58
2018-11-28T12:06:55.066Z,99476.27
2018-11-28T12:09:59.917Z,99483.23
2018-11-28T12:13:04.536Z,99489.28
2018-11-28T12:16:09.181Z,99491.88
2018-11-28T12:19:13.841Z,99482.55
2018-11-28T12:22:18.366Z,99482.30
2018-11-28T12:25:22.968Z,99489.27
2018-11-28T12:28:27.492Z,99491.02
2018-11-28T12:31:32.060Z,99494.32
2018-11-28T12:34:36.702Z,99491.52
2018-11-28T12:37:41.966Z,99500.58
2018-11-28T12:40:46.598Z,99508.02
2018-11-28T12:43:51.186Z,99513.06
2018-11-28T12:46:55.851Z,99518.38
2018-11-28T12:50:00.465Z,99525.32
2018-11-28T12:53:05.418Z,99532.04
2018-11-28T12:56:09.966Z,99533.70
2018-11-28T12:59:14.476Z,99536.98
2018-11-28T13:02:19.045Z,99546.05
2018-11-28T13:05:24.750Z,99544.06
2018-11-28T13:08:29.292Z,99553.59
2018-11-28T13:11:33.792Z,99555.97
2018-11-28T13:14:38.857Z,99561.48
2018-11-28T13:17:43.478Z,99569.15
2018-11-28T13:20:48.006Z,99575.39
2018-11-28T13:23:52.537Z,99581.84
2018-11-28T13:26:57.054Z,99589.05
2018-11-28T13:30:01.602Z,99594.61
2018-11-28T13:33:09.638Z,99598.62
2018-11-28T13:36:14.161Z,99606.00
2018-11-28T13:39:18.784Z,99619.83
2018-11-28T13:42:23.550Z,99619.34
2018-11-28T13:45:29.667Z,99627.70
2018-11-28T13:48:34.320Z,99635.36
2018-11-28T13:51:38.841Z,99633.90
2018-11-28T13:55:37.689Z,99646.21
2018-11-28T13:57:48.019Z,99653.47
2018-11-28T14:00:52.552Z,99668.31
2018-11-28T14:03:57.133Z,99670.45
2018-11-28T14:07:01.705Z,99665.77
2018-11-28T14:10:10.844Z,99672.44
2018-11-28T14:13:15.478Z,99672.84
2018-11-28T14:16:20.009Z,99678.77
2018-11-28T14:19:24.622Z,99686.27
2018-11-28T14:22:29.157Z,99693.21
2018-11-28T14:25:33.980Z,99701.81
2018-11-28T14:28:38.545Z,99703.20
2018-11-28T14:31:43.216Z,99706.06
2018-11-28T14:34:47.753Z,99708.84
2018-11-28T14:37:52.427Z,99718.52
2018-11-28T14:40:56.966Z,99715.70
2018-11-28T14:44:01.523Z,99726.59
2018-11-28T14:47:06.453Z,99723.77
2018-11-28T14:50:14.077Z,99731.12
2018-11-28T14:53:18.678Z,99742.02
2018-11-28T14:56:23.314Z,99747.76
2018-11-28T14:59:28.041Z,99754.49
2018-11-28T15:02:32.573Z,99766.94
2018-11-28T15:05:48.253Z,99768.23
2018-11-28T15:09:55.638Z,99782.40
2018-11-28T15:13:00.181Z,99792.91
2018-11-28T15:16:04.869Z,99800.70
2018-11-28T15:19:09.444Z,99799.44
2018-11-28T15:22:14.053Z,99807.33
2018-11-28T15:25:18.577Z,99818.25
2018-11-28T16:55:53.022Z,100034.42
2018-11-28T18:11:06.987Z,100172.94
2018-11-28T18:14:11.620Z,100174.44
2018-11-28T18:17:16.222Z,100189.06
2018-11-28T18:20:20.778Z,100191.62
2018-11-28T18:23:25.389Z,100191.20
2018-11-28T18:26:30.617Z,100201.38
2018-11-28T18:29:35.248Z,100201.98
2018-11-28T18:32:39.823Z,100203.14
2018-11-28T18:35:44.474Z,100209.41
2018-11-28T18:38:49.349Z,100216.14
2018-11-28T18:41:53.966Z,100219.47
2018-11-28T18:44:58.555Z,100231.30
2018-11-28T18:48:03.285Z,100233.20
2018-11-28T18:51:08.062Z,100241.39
2018-11-28T18:54:12.608Z,100246.66
2018-11-28T18:57:17.218Z,100259.41
2018-11-28T19:00:23.165Z,100258.05
2018-11-28T19:03:27.901Z,100273.02
2018-11-28T19:06:32.474Z,100282.00
2018-11-28T19:09:42.247Z,100286.51
2018-11-28T19:12:46.840Z,100295.59
2018-11-28T19:15:51.433Z,100304.92
2018-11-28T19:18:56.122Z,100311.61
2018-11-28T19:22:01.228Z,100308.80
2018-11-28T19:25:07.816Z,100316.87
2018-11-28T19:28:12.378Z,100326.34
2018-11-28T19:31:17.006Z,100334.05
2018-11-28T19:34:21.831Z,100336.89
2018-11-28T19:37:26.482Z,100337.69
2018-11-28T19:41:07.695Z,100344.20
2018-11-28T19:44:12.278Z,100362.77
2018-11-28T19:47:16.888Z,100361.69
2018-11-28T19:50:25.273Z,100368.87
2018-11-28T19:53:30.670Z,100367.66
2018-11-28T19:56:35.226Z,100371.46
2018-11-28T19:59:40.060Z,100387.74
2018-11-28T20:02:45.047Z,100386.33
2018-11-28T20:05:49.719Z,100383.39
2018-11-28T20:08:54.519Z,100388.42
2018-11-28T20:11:59.109Z,100398.45
2018-11-28T20:15:03.869Z,100406.52
2018-11-28T20:18:08.823Z,100418.40
2018-11-28T20:24:18.032Z,100425.94
2018-11-28T20:27:23.041Z,100426.45
2018-11-28T20:30:32.159Z,100428.39
2018-11-28T20:33:36.690Z,100433.61
2018-11-28T20:36:41.557Z,100434.08
2018-11-28T20:39:46.292Z,100444.33
2018-11-28T20:42:52.926Z,100440.22
2018-11-28T20:45:57.528Z,100448.34
2018-11-28T20:49:02.291Z,100440.98
2018-11-28T20:52:07.758Z,100450.40
2018-11-28T20:55:12.499Z,100455.62
2018-11-28T20:58:17.201Z,100458.57
2018-11-28T21:01:22.246Z,100464.50
2018-11-28T21:04:26.865Z,100466.39
2018-11-28T21:07:31.745Z,100472.76
2018-11-28T21:10:37.199Z,100477.75
2018-11-28T21:13:41.781Z,100477.87
2018-11-28T21:16:46.316Z,100484.17
2018-11-28T21:19:50.921Z,100489.98
2018-11-28T21:22:58.613Z,100496.61
2018-11-28T21:26:03.599Z,100494.13
2018-11-28T21:29:08.251Z,100499.52
2018-11-28T21:32:13.152Z,100505.98
2018-11-28T21:35:21.165Z,100516.73
2018-11-28T21:38:25.689Z,100512.05
2018-11-28T21:41:30.677Z,100517.48
2018-11-28T21:44:35.669Z,100514.69
2018-11-28T21:47:40.406Z,100519.42
2018-11-28T21:50:44.994Z,100525.16
2018-11-28T21:53:49.550Z,100529.22
2018-11-28T21:56:54.273Z,100524.70
2018-11-28T21:59:58.813Z,100532.89
2018-11-28T22:03:03.394Z,100533.08
2018-11-28T22:06:08.024Z,100540.87
2018-11-28T22:09:12.707Z,100545.83
2018-11-28T22:12:17.601Z,100541.86
2018-11-28T22:15:22.210Z,100548.02
2018-11-28T22:18:26.781Z,100553.61
2018-11-28T22:21:31.304Z,100554.52
2018-11-28T22:24:35.840Z,100553.16
2018-11-28T22:27:40.515Z,100553.27
2018-11-28T22:30:45.451Z,100569.00
2018-11-28T22:33:50.053Z,100569.45
2018-11-28T22:36:54.691Z,100564.51
2018-11-28T22:39:59.225Z,100576.95
2018-11-28T22:43:03.942Z,100584.89
2018-11-28T22:46:08.641Z,100583.13
2018-11-28T22:49:13.172Z,100584.20
2018-11-28T22:52:17.694Z,100587.03
2018-11-28T22:55:22.240Z,100593.81
2018-11-28T22:58:26.803Z,100595.38
2018-11-28T23:01:44.197Z,100596.95
2018-11-28T23:04:49.352Z,100595.67
2018-11-28T23:07:53.931Z,100595.37
2018-11-28T23:10:58.508Z,100599.05
2018-11-28T23:14:03.155Z,100595.42
2018-11-28T23:17:07.705Z,100599.67
2018-11-28T23:20:12.322Z,100598.31
2018-11-28T23:23:16.960Z,100604.34
2018-11-28T23:26:21.515Z,100604.24
2018-11-28T23:29:26.108Z,100607.73
2018-11-28T23:32:30.717Z,100600.81
2018-11-28T23:35:35.306Z,100603.66
2018-11-28T23:38:39.827Z,100609.16
2018-11-28T23:41:44.392Z,100611.09
2018-11-28T23:44:48.977Z,100610.31
2018-11-28T23:47:53.624Z,100616.64
2018-11-28T23:50:58.150Z,100618.48
2018-11-28T23:54:02.683Z,100616.04
2018-11-28T23:57:07.537Z,100619.95
